• Join FlightAware (Why Join?)
  • Login
  • US Flag 
08:40AM EDT


 

Airport Tracker/Info


-or-


 

Live Flight TrackerFlight Track Log ✈ BJS444 ✈ 18/Apr/2013 ✈ KAPF - KBCT

Flight Track Log - Related Links

Times and Time Zones

All times are in EDT time to prevent confusion due to time zone crossing. See the BJS444 flight status page for this flight to view local times or setup timezone preferences in your user account.

Time Position Orientation Groundspeed Altitude Reporting Facility
EDT Latitude Longitude Course Direction KTS MPH feet Rate Location/Type
12:39PM 26.1883 -81.6928 96° East 209 241 6,500  Level Miami Center
12:40PM 26.2422 -81.6417 40° Northeast 209 241 9,000 2,040 Climbing Miami Center
12:41PM 26.2864 -81.5672 56° Northeast 253 291 10,600 1,620 Climbing Miami Center
12:42PM 26.3478 -81.4744 54° Northeast 303 349 12,300 1,140 Climbing Miami Center
12:43PM 26.4738 -81.7619 10° North  Level FlightAware Approximate
12:43PM 26.4031 -81.3839 56° Northeast 339 390 12,900  Level Miami Center
12:44PM 26.5355 -81.7457 61° Northeast  Level FlightAware Approximate
12:44PM 26.4539 -81.2908 59° Northeast 345 397 13,000  Level Miami Center
12:45PM 26.5286 -81.6694 96° East  Level Estimated
12:45PM 26.4611 -81.1822 86° East 339 390 12,300  Level Miami Center
12:46PM 26.4689 -81.0664 86° East 354 407 11,200 -1,380 Descending Miami Center
12:47PM 26.4569 -80.9661 98° East 338 389 9,600 -1,680 Descending Miami Center
12:48PM 26.4514 -80.8733 94° East 296 341 7,900 -1,620 Descending Miami Center
12:49PM 26.4450 -80.7964 95° East 270 311 6,400 -1,500 Descending Miami Center
12:50PM 26.4539 -80.7039 84° East 270 311 5,000 -720 Descending Miami Center
12:51PM 26.4619 -80.6300 83° East 270 311 5,000  Level Miami Center
12:52PM 26.4703 -80.5536 83° East 268 308 5,000 -840 Level Miami Center
12:53PM 26.4597 -80.4675 98° East 268 308 3,400 -960 Descending Miami Center
12:54PM 26.4389 -80.3833 105° East 251 289 3,000 -480 Descending Miami Center
12:55PM 26.4219 -80.3108 105° East 250 288 2,500 -840 Descending Miami Center
12:56PM 26.4044 -80.2478 107° East 219 252 1,500 -600 Descending Miami Center
12:57PM 26.3869 -80.1894 109° East 207 238 1,400 -240 Descending Miami Center
12:58PM 26.3608 -80.1514 127° Southeast 165 190 1,100 -420 Descending Miami Center
12:58PM 26.3608 -80.1514 127° Southeast 139 160 1,000 -900 Descending Miami Center
12:59PM 26.3656 -80.1214 80° East 123 142 200 -900 Descending Miami Center
01:02PM 26.3667 -80.1000 119° Southeast  Level FlightAware Approximate